Elmvale, Canada
Current Conditions -  °F | °C
As of 5:00 AM on Friday 31 Oct 2014 (Local Time) from CYBN Reporting Station
Light Rain Light Rain  
Wind Chill: 34°   Ceiling: 2500
Heat Index: 39°   Visibility: 9mi
Dew Point: 39°   Wind: 8mph
Humidity: 100%   Direction: 150°SSE
Pressure: 29.93"   Gusts: NA
Location:  44.58°N, 79.87°W
Report Text: CYBN 310900Z AUTO 15007KT 9SM -RA OVC025 04/04 A2993 RMK PCPN0.5MM PAST HR SLP143
Loading
Personal Weather Stations






























Interactive Weather Map
Tropical Storm Tracking
New forecast layout! Learn more

10-Day Weather Forecast

Advertisements
Track Severe Weather on mobile